Terminal Aerodrome Forecast
Issued by NWS Springfield, MO

Home | Current Version | Previous Version | Text Only | Print | Product List | Glossary On
Versions: 1 2 3 4 5 6 7 8 9 10 11 12 13 14 15 16 17 18 19 20 21 22 23
050
FTUS43 KSGF 211541 AAA
TAFSGF
TAF AMD
KSGF 211541Z 2116/2212 14007KT P6SM OVC100
     FM212000 10014G20KT P6SM OVC050
     FM220000 10013KT P6SM -SHRA OVC040
     FM220600 10014KT 5SM -RA OVC015=

USA.gov is the U.S. government's official web portal to all federal, state and local government web resources and services.